Time;durP1;ratioP1;P1;durP2;ratioP2;P2;SDS_P1;SDS_P2;PMS_P1;PMS_P2;Temp;Humidity;BMP_temperature;BMP_pressure;BME280_temperature;BME280_humidity;BME280_pressure;Samples;Min_cycle;Max_cycle;Signal;HPM_P1;HPM_P2
2022/10/28 00:01:41;;;;;;;0.00;0.00;;;;;;;16.69;68.14;98765.84;8282854;28;20234;-85
2022/10/28 00:05:45;;;;;;;0.00;0.00;;;;;;;16.82;67.67;98763.41;8282394;28;20237;-85
2022/10/28 00:09:49;;;;;;;0.00;0.00;;;;;;;16.85;67.69;98755.41;8282038;28;20240;-85
2022/10/28 00:13:53;;;;;;;0.00;0.00;;;;;;;16.77;67.97;98749.72;8282306;28;20537;-85
2022/10/28 00:17:55;;;;;;;0.00;0.00;;;;;;;16.81;68.28;98754.69;8281839;28;20432;-84
2022/10/28 00:22:00;;;;;;;0.00;0.00;;;;;;;16.89;68.16;98750.84;8282458;28;20283;-82
2022/10/28 00:26:07;;;;;;;0.00;0.00;;;;;;;16.87;67.80;98760.50;8282111;28;20261;-85
2022/10/28 00:30:11;;;;;;;0.00;0.00;;;;;;;16.87;68.03;98750.91;8282405;28;20530;-85
2022/10/28 00:34:15;;;;;;;0.00;0.00;;;;;;;16.89;68.26;98748.22;8285300;28;20233;-85
2022/10/28 00:38:19;;;;;;;0.00;0.00;;;;;;;16.87;68.57;98753.53;8288700;28;20260;-84
2022/10/28 00:42:22;;;;;;;0.00;0.00;;;;;;;16.89;68.26;98750.84;8289093;28;20229;-85
2022/10/28 00:46:29;;;;;;;0.00;0.00;;;;;;;16.89;68.20;98767.38;8288809;28;20241;-85
2022/10/28 00:50:42;;;;;;;0.00;0.00;;;;;;;16.89;68.02;98756.91;8288618;28;20225;-84
2022/10/28 00:54:47;;;;;;;0.00;0.00;;;;;;;16.85;68.09;98755.41;8287941;28;20238;-85
2022/10/28 00:58:50;;;;;;;0.00;0.00;;;;;;;16.77;67.91;98757.56;8287840;28;20242;-86
2022/10/28 01:02:53;;;;;;;0.00;0.00;;;;;;;16.79;68.46;98768.78;8287241;28;20306;-84
2022/10/28 01:06:56;;;;;;;0.00;0.00;;;;;;;16.74;67.63;98761.19;8287520;28;20404;-82
2022/10/28 01:11:12;;;;;;;0.00;0.00;;;;;;;16.73;67.66;98754.25;8287384;28;20284;-85
2022/10/28 01:15:21;;;;;;;0.00;0.00;;;;;;;16.73;67.59;98749.03;8287459;28;20514;-85
2022/10/28 01:19:47;;;;;;;0.00;0.00;;;;;;;16.70;67.77;98738.78;8287164;28;20253;-85
2022/10/28 01:24:04;;;;;;;0.00;0.00;;;;;;;16.19;70.51;98730.31;8287218;28;20457;-85
2022/10/28 01:28:19;;;;;;;0.00;0.00;;;;;;;16.49;69.02;98730.38;8286700;28;20233;-85
2022/10/28 01:32:30;;;;;;;0.00;0.00;;;;;;;16.55;68.64;98724.78;8287093;28;20248;-86
2022/10/28 01:36:36;;;;;;;0.00;0.00;;;;;;;16.40;69.43;98729.09;8286584;28;20240;-85
2022/10/28 01:40:45;;;;;;;0.00;0.00;;;;;;;16.19;70.54;98727.69;8286704;28;20238;-86
2022/10/28 01:44:51;;;;;;;0.00;0.00;;;;;;;16.28;70.16;98723.72;8285986;28;20241;-86
2022/10/28 01:48:57;;;;;;;0.00;0.00;;;;;;;16.12;70.93;98727.16;8270023;28;20242;-85
2022/10/28 01:53:04;;;;;;;0.00;0.00;;;;;;;16.25;70.08;98731.75;8286612;28;20244;-85
2022/10/28 01:57:06;;;;;;;0.00;0.00;;;;;;;16.03;71.27;98733.75;8286015;28;20253;-86
2022/10/28 02:01:10;;;;;;;0.00;0.00;;;;;;;15.70;72.36;98728.53;8286029;28;20230;-86
2022/10/28 02:05:40;;;;;;;0.07;0.07;;;;;;;15.73;72.75;98725.81;8285662;28;20304;-86
2022/10/28 02:09:54;;;;;;;0.00;0.00;;;;;;;15.89;72.24;98727.59;8285851;28;20461;-85
2022/10/28 02:14:02;;;;;;;0.00;0.00;;;;;;;15.80;72.97;98718.47;8285456;28;20245;-84
2022/10/28 02:18:24;;;;;;;0.00;0.00;;;;;;;15.81;72.49;98720.16;8285514;28;20279;-85
2022/10/28 02:22:32;;;;;;;0.07;0.07;;;;;;;15.85;72.73;98726.91;8285341;28;20268;-85
2022/10/28 02:26:36;;;;;;;0.00;0.00;;;;;;;16.15;71.48;98723.56;8285099;28;20236;-85
2022/10/28 02:30:45;;;;;;;0.00;0.00;;;;;;;16.33;70.33;98721.69;8285127;28;20249;-85
2022/10/28 02:34:51;;;;;;;0.00;0.00;;;;;;;16.13;71.18;98713.19;8284794;28;20240;-85
2022/10/28 02:38:56;;;;;;;0.00;0.00;;;;;;;16.16;70.71;98710.44;8284288;28;20292;-85
2022/10/28 02:43:02;;;;;;;0.00;0.00;;;;;;;16.19;70.76;98706.78;8284665;28;20237;-85
2022/10/28 02:47:09;;;;;;;0.00;0.00;;;;;;;16.11;70.38;98699.38;8284556;28;20241;-85
2022/10/28 02:51:15;;;;;;;0.00;0.00;;;;;;;16.20;70.85;98700.63;8284601;28;20524;-85
2022/10/28 02:55:20;;;;;;;0.00;0.00;;;;;;;15.67;71.76;98702.59;8283692;28;20252;-85
2022/10/28 02:59:24;;;;;;;0.00;0.00;;;;;;;15.53;73.67;98697.25;8284555;28;20237;-85
2022/10/28 03:03:27;;;;;;;0.00;0.00;;;;;;;15.66;73.11;98697.47;8283999;28;20233;-85
2022/10/28 03:07:30;;;;;;;0.00;0.00;;;;;;;15.85;72.11;98705.19;8284038;28;20295;-85
2022/10/28 03:11:34;;;;;;;0.00;0.00;;;;;;;15.77;72.20;98710.81;8283669;28;20237;-85
2022/10/28 03:15:37;;;;;;;0.00;0.00;;;;;;;15.92;71.41;98702.16;8283682;28;20261;-85
2022/10/28 03:19:39;;;;;;;0.00;0.00;;;;;;;15.59;72.59;98707.38;8283520;28;20437;-85
2022/10/28 03:23:42;;;;;;;0.00;0.00;;;;;;;15.66;72.33;98700.91;8283425;28;20403;-85
2022/10/28 03:27:46;;;;;;;0.00;0.00;;;;;;;15.76;71.39;98696.94;8283232;28;20244;-85
2022/10/28 03:31:49;;;;;;;0.00;0.00;;;;;;;15.68;71.84;98706.06;8283338;28;20544;-85
2022/10/28 03:35:52;;;;;;;0.00;0.00;;;;;;;15.56;72.60;98702.34;8282503;28;20233;-80
2022/10/28 03:39:55;;;;;;;0.00;0.00;;;;;;;15.67;71.61;98696.53;8282898;28;20245;-85
2022/10/28 03:43:59;;;;;;;0.00;0.00;;;;;;;15.78;71.11;98697.69;8283193;28;20229;-83
2022/10/28 03:48:02;;;;;;;0.00;0.00;;;;;;;15.79;71.06;98701.13;8283052;28;20352;-85
2022/10/28 03:52:05;;;;;;;0.00;0.00;;;;;;;15.60;71.56;98701.25;8282861;28;20237;-85
2022/10/28 03:56:08;;;;;;;0.00;0.00;;;;;;;15.74;71.55;98697.91;8282899;28;20260;-85
2022/10/28 04:00:15;;;;;;;0.00;0.00;;;;;;;15.60;72.07;98702.06;8282602;28;20233;-85
2022/10/28 04:04:18;;;;;;;0.00;0.00;;;;;;;15.76;71.36;98699.53;8282567;28;20237;-86
2022/10/28 04:08:21;;;;;;;0.00;0.00;;;;;;;15.78;71.37;98702.03;8282391;28;20233;-85
2022/10/28 04:12:24;;;;;;;0.00;0.00;;;;;;;15.82;70.76;98704.44;8282405;28;20237;-85
2022/10/28 04:16:28;;;;;;;0.00;0.00;;;;;;;15.98;69.99;98709.66;8282418;28;20529;-85
2022/10/28 04:20:31;;;;;;;0.00;0.00;;;;;;;15.91;70.33;98710.06;8282484;28;20233;-85
2022/10/28 04:24:34;;;;;;;0.00;0.00;;;;;;;15.44;72.52;98698.63;8282237;28;20229;-85
2022/10/28 04:28:37;;;;;;;0.00;0.00;;;;;;;15.69;71.05;98699.88;8282122;28;20529;-85
2022/10/28 04:32:41;;;;;;;0.00;0.00;;;;;;;15.86;69.98;98706.84;8282121;28;20288;-85
2022/10/28 04:36:44;;;;;;;0.00;0.00;;;;;;;15.86;70.46;98714.69;8281987;28;20244;-86
2022/10/28 04:40:47;;;;;;;0.00;0.00;;;;;;;15.76;70.36;98714.34;8281743;28;20241;-85
2022/10/28 04:44:50;;;;;;;0.00;0.00;;;;;;;15.95;70.11;98724.66;8281720;28;20244;-85
2022/10/28 04:48:54;;;;;;;0.00;0.00;;;;;;;15.51;71.04;98720.00;8281006;28;20291;-85
2022/10/28 04:52:57;;;;;;;0.00;0.00;;;;;;;15.39;72.40;98716.28;8281514;28;20240;-82
2022/10/28 04:57:00;;;;;;;0.00;0.00;;;;;;;15.42;72.55;98719.56;8281396;28;20245;-85
2022/10/28 05:01:06;;;;;;;0.00;0.00;;;;;;;15.69;70.60;98731.22;8281320;28;20241;-85
2022/10/28 05:05:10;;;;;;;0.00;0.00;;;;;;;15.86;70.17;98736.44;8281537;28;20263;-85
2022/10/28 05:09:13;;;;;;;0.00;0.00;;;;;;;15.85;70.29;98729.53;8281432;28;20336;-85
2022/10/28 05:13:16;;;;;;;0.00;0.00;;;;;;;15.96;69.20;98747.25;8281454;28;20234;-86
2022/10/28 05:17:19;;;;;;;0.00;0.00;;;;;;;16.02;69.41;98726.84;8282982;28;20230;-85
2022/10/28 05:21:23;;;;;;;0.00;0.00;;;;;;;15.98;69.06;98708.81;8287968;28;20464;-86
2022/10/28 05:25:26;;;;;;;0.00;0.00;;;;;;;15.98;68.87;98711.44;8287931;28;20567;-86
2022/10/28 05:29:29;;;;;;;0.00;0.00;;;;;;;15.98;69.46;98711.44;8286984;28;20232;-86
2022/10/28 05:33:35;;;;;;;0.00;0.00;;;;;;;16.03;69.02;98702.41;8286982;28;20236;-83
2022/10/28 05:37:39;;;;;;;0.00;0.00;;;;;;;15.68;71.08;98686.00;8286642;28;20463;-87
2022/10/28 05:41:41;;;;;;;0.00;0.00;;;;;;;15.81;70.18;98700.13;8286765;28;20237;-87
2022/10/28 05:45:44;;;;;;;0.00;0.00;;;;;;;15.97;69.78;98723.66;8286262;28;20233;-87
2022/10/28 05:49:47;;;;;;;0.00;0.00;;;;;;;15.58;71.39;98714.38;8286278;28;20234;-86
2022/10/28 05:53:51;;;;;;;0.00;0.00;;;;;;;15.81;70.70;98725.41;8286692;28;20259;-87
2022/10/28 05:57:54;;;;;;;0.00;0.00;;;;;;;15.82;70.85;98720.09;8285837;28;20237;-85
2022/10/28 06:01:58;;;;;;;0.00;0.00;;;;;;;15.81;70.83;98726.22;8286039;28;20241;-86
2022/10/28 06:06:01;;;;;;;0.00;0.00;;;;;;;16.02;69.70;98732.06;8286017;28;20237;-88
2022/10/28 06:10:07;;;;;;;0.00;0.00;;;;;;;15.83;70.65;98732.22;8285972;28;20229;-84
2022/10/28 06:14:10;;;;;;;0.00;0.00;;;;;;;15.87;70.26;98730.28;8285329;28;20237;-87
2022/10/28 06:18:13;;;;;;;0.00;0.00;;;;;;;16.01;70.25;98737.38;8285420;28;20233;-87
2022/10/28 06:22:22;;;;;;;0.00;0.00;;;;;;;16.04;70.18;98747.66;8285499;28;20225;-87
2022/10/28 06:26:26;;;;;;;0.00;0.00;;;;;;;15.99;70.18;98750.53;8285410;28;20233;-87
2022/10/28 06:30:29;;;;;;;0.00;0.00;;;;;;;16.02;69.86;98750.34;8285249;28;20295;-87
2022/10/28 06:34:32;;;;;;;0.00;0.00;;;;;;;15.97;70.38;98746.28;8284959;28;20229;-88
2022/10/28 06:38:34;;;;;;;0.00;0.00;;;;;;;15.85;71.14;98747.81;8284816;28;20234;-77
2022/10/28 06:42:39;;;;;;;0.00;0.00;;;;;;;16.64;73.62;98751.34;8284399;28;20234;-77
2022/10/28 06:46:42;;;;;;;0.00;0.00;;;;;;;16.60;68.82;98769.84;8284266;28;20248;-86
2022/10/28 06:50:45;;;;;;;0.00;0.00;;;;;;;16.48;68.57;98803.66;8284613;28;20229;-86
2022/10/28 06:54:47;;;;;;;0.00;0.00;;;;;;;16.47;68.53;98796.72;8284551;28;20233;-86
2022/10/28 06:58:52;;;;;;;0.00;0.00;;;;;;;16.36;69.00;98790.31;8284190;28;20253;-86
2022/10/28 07:02:54;;;;;;;0.00;0.00;;;;;;;16.44;68.55;98799.53;8283612;28;20233;-85
2022/10/28 07:06:58;;;;;;;0.00;0.00;;;;;;;16.02;70.14;98762.56;8284350;28;20240;-86
2022/10/28 07:11:02;;;;;;;0.00;0.00;;;;;;;15.61;71.80;98734.25;8283588;28;20237;-87
2022/10/28 07:15:07;;;;;;;0.00;0.00;;;;;;;15.45;72.27;98718.56;8283774;28;20533;-86
2022/10/28 07:19:10;;;;;;;0.00;0.00;;;;;;;15.36;73.29;98711.19;8283474;28;20245;-87
2022/10/28 07:23:13;;;;;;;0.00;0.00;;;;;;;15.77;71.61;98721.28;8283653;28;20241;-87
2022/10/28 07:27:16;;;;;;;0.00;0.00;;;;;;;16.05;70.43;98741.53;8283508;28;20413;-86
2022/10/28 07:31:20;;;;;;;0.00;0.00;;;;;;;15.81;71.18;98736.69;8283167;28;20240;-87
2022/10/28 07:35:23;;;;;;;0.00;0.00;;;;;;;15.83;70.74;98740.03;8283517;28;20229;-87
2022/10/28 07:39:26;;;;;;;0.00;0.00;;;;;;;16.00;70.46;98753.97;8283078;28;20240;-87
2022/10/28 07:43:29;;;;;;;0.00;0.00;;;;;;;16.26;69.53;98755.19;8282819;28;20232;-87
2022/10/28 07:47:33;;;;;;;0.00;0.00;;;;;;;15.86;71.52;98738.19;8282901;28;20234;-87
2022/10/28 07:51:36;;;;;;;0.00;0.00;;;;;;;16.20;70.20;98734.59;8282917;28;20225;-87
2022/10/28 07:55:38;;;;;;;0.00;0.00;;;;;;;16.46;69.56;98740.16;8282667;28;20359;-86
2022/10/28 07:59:41;;;;;;;0.00;0.00;;;;;;;16.63;68.60;98740.03;8282811;28;20241;-87
2022/10/28 08:03:46;;;;;;;0.00;0.00;;;;;;;16.72;68.41;98736.91;8282525;28;20279;-87
2022/10/28 08:07:49;;;;;;;0.00;0.00;;;;;;;16.91;68.28;98738.50;8282882;28;20237;-87
2022/10/28 08:11:55;;;;;;;0.00;0.00;;;;;;;16.73;68.60;98730.72;8282471;28;20238;-87
2022/10/28 08:15:59;;;;;;;0.00;0.00;;;;;;;16.76;68.39;98745.41;8282200;28;20225;-85
2022/10/28 08:20:03;;;;;;;0.00;0.00;;;;;;;16.52;68.61;98731.97;8282637;28;20241;-86
2022/10/28 08:24:07;;;;;;;0.00;0.00;;;;;;;16.85;68.56;98744.06;8282577;28;20229;-86
2022/10/28 08:28:09;;;;;;;0.00;0.00;;;;;;;16.79;68.63;98743.47;8282442;28;20409;-86
2022/10/28 08:32:12;;;;;;;0.00;0.00;;;;;;;17.05;68.12;98740.31;8282193;28;20249;-87
2022/10/28 08:36:16;;;;;;;0.00;0.00;;;;;;;17.03;68.14;98732.53;8282171;28;20225;-86
2022/10/28 08:40:24;;;;;;;0.00;0.00;;;;;;;17.05;67.35;98732.47;8282133;28;20453;-86
2022/10/28 08:44:54;;;;;;;0.00;0.00;;;;;;;17.25;66.88;98739.13;8281903;28;20225;-86
2022/10/28 08:48:57;;;;;;;0.00;0.00;;;;;;;18.22;64.12;98722.72;8281582;28;20242;-86
2022/10/28 08:53:04;;;;;;;0.03;0.03;;;;;;;19.35;61.30;98714.44;8282233;28;20288;-86
2022/10/28 08:57:15;;;;;;;0.00;0.00;;;;;;;18.89;61.08;98701.81;8287814;28;20238;-86
2022/10/28 09:01:25;;;;;;;0.00;0.00;;;;;;;19.09;60.93;98710.94;8287999;28;20238;-81
2022/10/28 09:05:29;;;;;;;0.00;0.00;;;;;;;19.98;57.66;98711.88;8287630;28;20235;-82
2022/10/28 09:09:33;;;;;;;0.00;0.00;;;;;;;20.98;56.29;98713.34;8287436;28;20234;-84
2022/10/28 09:13:47;;;;;;;0.00;0.00;;;;;;;21.58;54.05;98713.22;8287539;28;20428;-83
2022/10/28 09:17:53;;;;;;;0.00;0.00;;;;;;;21.50;53.27;98719.06;8287367;28;20237;-86
2022/10/28 09:22:07;;;;;;;0.00;0.00;;;;;;;21.13;53.13;98721.00;8278793;28;20233;-84
2022/10/28 09:26:19;;;;;;;0.10;0.10;;;;;;;21.69;52.83;98717.66;8287177;28;20237;-85
2022/10/28 09:30:29;;;;;;;0.00;0.00;;;;;;;21.80;52.39;98707.06;8287166;28;20229;-86
2022/10/28 09:34:35;;;;;;;0.00;0.00;;;;;;;21.06;53.15;98707.50;8286840;28;20234;-82
2022/10/28 09:38:39;;;;;;;0.00;0.00;;;;;;;21.05;54.12;98709.25;8285729;28;20505;-80
2022/10/28 09:42:47;;;;;;;0.00;0.00;;;;;;;20.85;53.91;98699.41;8285163;28;20249;-77
2022/10/28 09:46:54;;;;;;;0.00;0.00;;;;;;;19.99;56.39;98727.53;8285040;28;20640;-78
2022/10/28 09:50:57;;;;;;;0.00;0.00;;;;;;;19.92;56.69;98706.09;8284566;28;20237;-76
2022/10/28 09:55:06;;;;;;;0.00;0.00;;;;;;;20.54;56.26;98713.97;8284737;28;20249;-80
2022/10/28 09:59:13;;;;;;;0.00;0.00;;;;;;;20.50;56.40;98710.72;8284784;28;20248;-80
2022/10/28 10:03:17;;;;;;;0.00;0.00;;;;;;;21.48;54.58;98715.72;8284864;28;20243;-77
2022/10/28 10:07:27;;;;;;;0.00;0.00;;;;;;;20.85;53.80;98710.78;8283916;28;20234;-79
2022/10/28 10:11:34;;;;;;;0.00;0.00;;;;;;;21.02;53.92;98706.06;8284448;28;20420;-79
2022/10/28 10:15:40;;;;;;;0.00;0.00;;;;;;;22.32;51.35;98702.13;8284501;28;20522;-78
2022/10/28 10:19:57;;;;;;;0.00;0.00;;;;;;;22.33;50.32;98698.50;8283726;28;20246;-79
2022/10/28 10:24:00;;;;;;;0.00;0.00;;;;;;;22.71;49.60;98705.06;8283868;28;20583;-79
2022/10/28 10:28:05;;;;;;;0.00;0.00;;;;;;;23.12;48.75;98708.75;8283850;28;20569;-81
2022/10/28 10:32:16;;;;;;;0.00;0.00;;;;;;;22.99;49.30;98728.22;8283960;28;20437;-78
2022/10/28 10:36:22;;;;;;;0.00;0.00;;;;;;;22.31;49.81;98717.09;8283865;28;20241;-78
2022/10/28 10:40:26;;;;;;;0.00;0.00;;;;;;;22.12;51.56;98708.97;8283281;28;20239;-78
2022/10/28 10:44:33;;;;;;;0.00;0.00;;;;;;;21.65;51.86;98696.78;8283406;28;20240;-78
2022/10/28 10:48:37;;;;;;;0.00;0.00;;;;;;;21.55;51.97;98684.44;8282914;28;20241;-78
2022/10/28 10:52:48;;;;;;;0.00;0.00;;;;;;;22.22;51.05;98673.81;8287298;28;20237;-79
2022/10/28 10:56:51;;;;;;;0.00;0.00;;;;;;;21.52;52.91;98666.25;8284395;28;20242;-78
2022/10/28 11:00:55;;;;;;;0.00;0.00;;;;;;;21.46;52.72;98668.41;8288092;28;20226;-79
2022/10/28 11:05:02;;;;;;;0.00;0.00;;;;;;;21.53;53.21;98660.84;8283340;28;20248;-78
2022/10/28 11:09:06;;;;;;;0.00;0.00;;;;;;;21.35;53.25;98657.00;8282765;28;20273;-79
2022/10/28 11:13:25;;;;;;;0.00;0.00;;;;;;;21.18;53.47;98651.22;8282782;28;20241;-78
2022/10/28 11:17:29;;;;;;;0.00;0.00;;;;;;;21.06;54.66;98642.50;8281506;28;20237;-80
2022/10/28 11:21:49;;;;;;;0.00;0.00;;;;;;;21.22;53.64;98643.94;8281539;28;20225;-80
2022/10/28 11:25:53;;;;;;;0.00;0.00;;;;;;;21.20;53.73;98644.06;8281286;28;20430;-77
2022/10/28 11:29:57;;;;;;;0.00;0.00;;;;;;;21.45;53.16;98637.72;8281729;28;20237;-78
2022/10/28 11:34:13;;;;;;;0.00;0.00;;;;;;;21.45;53.14;98637.72;8281851;28;20240;-78
2022/10/28 11:38:31;;;;;;;0.00;0.00;;;;;;;21.67;52.75;98631.63;8282387;28;20237;-78
2022/10/28 11:42:41;;;;;;;0.00;0.00;;;;;;;22.09;51.20;98638.00;8281487;28;20233;-78
2022/10/28 11:46:49;;;;;;;0.00;0.00;;;;;;;22.10;50.96;98632.59;8281427;28;20446;-79
2022/10/28 11:51:00;;;;;;;0.00;0.00;;;;;;;22.00;50.88;98623.75;8281238;28;20237;-76
2022/10/28 11:55:12;;;;;;;0.00;0.00;;;;;;;22.59;49.29;98625.94;8281107;28;20233;-78
2022/10/28 11:59:39;;;;;;;0.00;0.00;;;;;;;22.87;49.37;98630.72;8280788;28;20517;-80
2022/10/28 12:03:57;;;;;;;0.00;0.00;;;;;;;23.02;48.92;98626.78;8281012;28;20245;-81
2022/10/28 12:08:27;;;;;;;0.00;0.00;;;;;;;23.15;49.17;98627.44;8280499;28;20237;-81
2022/10/28 12:12:35;;;;;;;0.00;0.00;;;;;;;23.05;47.98;98626.53;8281320;28;20462;-81
2022/10/28 12:16:48;;;;;;;0.00;0.00;;;;;;;23.09;47.72;98627.09;8281150;28;20607;-81
2022/10/28 12:20:56;;;;;;;0.00;0.00;;;;;;;22.94;48.06;98619.50;8280555;28;20561;-81
2022/10/28 12:25:01;;;;;;;0.00;0.00;;;;;;;23.32;47.91;98610.13;8280008;28;20242;-78
2022/10/28 12:29:10;;;;;;;0.00;0.00;;;;;;;23.21;47.62;98600.47;8283537;28;20233;-79
2022/10/28 12:33:15;;;;;;;0.00;0.00;;;;;;;22.95;48.55;98599.22;8287387;28;20317;-79
2022/10/28 12:37:21;;;;;;;0.00;0.00;;;;;;;22.74;48.58;98596.59;8287272;28;20229;-79
2022/10/28 12:41:25;;;;;;;0.00;0.00;;;;;;;22.67;48.19;98592.78;8287012;28;20233;-78
2022/10/28 12:45:31;;;;;;;0.00;0.00;;;;;;;22.33;47.72;98582.41;8287008;28;20230;-78
2022/10/28 12:49:43;;;;;;;0.00;0.00;;;;;;;22.35;48.07;98578.69;8292323;28;20361;-79
2022/10/28 12:53:51;;;;;;;0.00;0.00;;;;;;;22.28;48.73;98593.38;8288599;28;20262;-79
2022/10/28 12:58:01;;;;;;;0.00;0.00;;;;;;;22.23;48.96;98588.41;8272837;28;20237;-78
2022/10/28 13:02:13;;;;;;;0.00;0.00;;;;;;;22.40;48.76;98591.50;8287245;28;20266;-81
2022/10/28 13:06:45;;;;;;;0.00;0.00;;;;;;;22.60;48.13;98589.84;8286562;28;20237;-80
2022/10/28 13:10:53;;;;;;;0.00;0.00;;;;;;;23.20;47.32;98600.59;8286385;28;20248;-80
2022/10/28 13:15:24;;;;;;;0.00;0.00;;;;;;;23.52;47.05;98589.88;8286017;28;20237;-81
2022/10/28 13:19:46;;;;;;;0.00;0.00;;;;;;;23.65;46.08;98583.50;8285948;28;20293;-79
2022/10/28 13:23:53;;;;;;;0.00;0.00;;;;;;;23.88;45.90;98587.63;8285253;28;20260;-79
2022/10/28 13:27:56;;;;;;;0.00;0.00;;;;;;;23.62;45.67;98585.44;8284811;28;20240;-78
2022/10/28 13:31:59;;;;;;;0.00;0.00;;;;;;;23.72;45.37;98589.91;8285732;28;20245;-79
2022/10/28 13:36:15;;;;;;;0.00;0.00;;;;;;;23.76;45.81;98592.16;8285243;28;20521;-77
2022/10/28 13:40:25;;;;;;;0.00;0.00;;;;;;;23.79;44.42;98594.53;8284081;28;20535;-80
2022/10/28 13:44:29;;;;;;;0.00;0.00;;;;;;;23.57;44.95;98595.59;8284919;28;20247;-81
2022/10/28 13:48:52;;;;;;;0.00;0.00;;;;;;;23.90;44.22;98584.84;8284443;28;20249;-81
2022/10/28 13:53:42;;;;;;;0.00;0.00;;;;;;;24.11;44.13;98600.59;8283834;28;20438;-80
2022/10/28 13:57:47;;;;;;;0.00;0.00;;;;;;;23.84;43.87;98601.22;8284356;28;20242;-81
2022/10/28 14:01:59;;;;;;;0.00;0.00;;;;;;;23.47;44.33;98600.00;8283828;28;20318;-80
2022/10/28 14:06:30;;;;;;;0.00;0.00;;;;;;;23.46;44.87;98600.16;8283838;28;20524;-79
2022/10/28 14:10:33;;;;;;;0.00;0.00;;;;;;;23.48;45.04;98592.94;8283790;28;20230;-80
2022/10/28 14:14:37;;;;;;;0.00;0.00;;;;;;;23.76;44.94;98584.22;8284569;28;20270;-81
2022/10/28 14:18:41;;;;;;;0.00;0.00;;;;;;;23.57;45.19;98586.81;8284469;28;20229;-78
2022/10/28 14:22:46;;;;;;;0.00;0.00;;;;;;;23.35;45.97;98583.41;8283909;28;20238;-77
2022/10/28 14:27:19;;;;;;;0.00;0.00;;;;;;;23.06;45.99;98580.69;8287121;28;20229;-78
2022/10/28 14:31:55;;;;;;;0.00;0.00;;;;;;;22.92;45.57;98576.53;8284173;28;20508;-78
2022/10/28 14:36:14;;;;;;;0.00;0.00;;;;;;;22.95;45.86;98586.00;8283704;28;20239;-75
2022/10/28 14:40:29;;;;;;;0.00;0.00;;;;;;;22.90;46.11;98582.91;8284090;28;20534;-77
2022/10/28 14:44:51;;;;;;;0.00;0.00;;;;;;;22.70;46.61;98577.53;8284032;28;20233;-77
2022/10/28 14:48:56;;;;;;;0.00;0.00;;;;;;;22.53;46.69;98584.22;8282866;28;20255;-78
2022/10/28 14:53:01;;;;;;;0.00;0.00;;;;;;;22.36;46.12;98575.09;8283119;28;20249;-78
2022/10/28 14:57:05;;;;;;;0.00;0.00;;;;;;;22.34;46.46;98576.19;8283354;28;20517;-78
2022/10/28 15:01:19;;;;;;;0.00;0.00;;;;;;;22.11;46.14;98578.88;8282922;28;20529;-78
2022/10/28 15:05:31;;;;;;;0.00;0.00;;;;;;;21.99;46.71;98578.09;8282638;28;20240;-78
2022/10/28 15:09:35;;;;;;;0.00;0.00;;;;;;;21.92;46.80;98576.09;8282431;28;20562;-78
2022/10/28 15:13:37;;;;;;;0.00;0.00;;;;;;;21.85;47.32;98578.38;8282418;28;20253;-78
2022/10/28 15:17:41;;;;;;;0.00;0.00;;;;;;;21.69;47.57;98572.69;8282178;28;20243;-78
2022/10/28 15:21:59;;;;;;;0.00;0.00;;;;;;;21.64;47.51;98573.03;8282242;28;20242;-78
2022/10/28 15:26:06;;;;;;;0.00;0.00;;;;;;;21.61;48.10;98579.41;8282156;28;20233;-77
2022/10/28 15:30:15;;;;;;;0.00;0.00;;;;;;;21.57;47.65;98577.13;8282145;28;20233;-78
2022/10/28 15:34:20;;;;;;;0.00;0.00;;;;;;;21.47;48.54;98580.47;8281140;28;20237;-77
2022/10/28 15:38:36;;;;;;;0.00;0.00;;;;;;;21.35;48.25;98568.25;8281207;28;20234;-78
2022/10/28 15:42:41;;;;;;;0.00;0.00;;;;;;;21.31;49.11;98571.28;8281675;28;20397;-79
2022/10/28 15:46:49;;;;;;;0.00;0.00;;;;;;;21.20;49.19;98572.94;8281551;28;20257;-79
2022/10/28 15:51:13;;;;;;;0.00;0.00;;;;;;;21.29;48.75;98566.13;8281726;28;20284;-78
2022/10/28 15:55:28;;;;;;;0.00;0.00;;;;;;;21.19;49.34;98573.91;8280657;28;20230;-79
2022/10/28 15:59:49;;;;;;;0.00;0.00;;;;;;;21.21;49.95;98577.25;8281536;28;20233;-78
2022/10/28 16:03:52;;;;;;;0.00;0.00;;;;;;;21.11;50.24;98578.91;8280202;28;20537;-76
2022/10/28 16:07:55;;;;;;;0.00;0.00;;;;;;;21.00;50.85;98579.78;8281160;28;20244;-78
2022/10/28 16:12:03;;;;;;;0.00;0.00;;;;;;;21.11;51.26;98578.09;8281750;28;20256;-77
2022/10/28 16:16:07;;;;;;;0.00;0.00;;;;;;;21.03;51.46;98578.69;8281593;28;20233;-78
2022/10/28 16:20:12;;;;;;;0.00;0.00;;;;;;;20.96;52.26;98583.59;8281451;28;20233;-80
2022/10/28 16:24:20;;;;;;;0.00;0.00;;;;;;;20.91;52.38;98577.84;8281184;28;20233;-75
2022/10/28 16:28:25;;;;;;;0.00;0.00;;;;;;;20.84;52.80;98582.72;8281680;28;20229;-78
2022/10/28 16:32:31;;;;;;;0.00;0.00;;;;;;;20.87;52.88;98577.25;8281278;28;20233;-78
2022/10/28 16:36:37;;;;;;;0.00;0.00;;;;;;;20.59;54.20;98578.47;8281018;28;20236;-77
2022/10/28 16:40:39;;;;;;;0.00;0.00;;;;;;;20.68;53.70;98577.81;8280924;28;20249;-76
2022/10/28 16:45:00;;;;;;;0.00;0.00;;;;;;;20.70;54.26;98581.16;8280689;28;20249;-76
2022/10/28 16:49:03;;;;;;;0.00;0.00;;;;;;;20.63;54.20;98577.31;8281271;28;20245;-80
2022/10/28 16:53:06;;;;;;;0.00;0.00;;;;;;;20.68;54.41;98585.72;8281473;28;20244;-79
2022/10/28 16:57:09;;;;;;;0.00;0.00;;;;;;;20.48;55.45;98581.09;8280641;28;20587;-81
2022/10/28 17:01:14;;;;;;;0.00;0.00;;;;;;;20.33;55.68;98587.50;8280456;28;20331;-79
2022/10/28 17:05:20;;;;;;;0.00;0.00;;;;;;;20.40;55.56;98581.66;8280446;28;20308;-80
2022/10/28 17:09:24;;;;;;;0.00;0.00;;;;;;;20.30;56.47;98573.63;8280272;28;20564;-79
2022/10/28 17:13:26;;;;;;;0.00;0.00;;;;;;;20.39;56.44;98577.38;8280288;28;20428;-79
2022/10/28 17:17:31;;;;;;;0.00;0.00;;;;;;;20.24;56.78;98568.00;8284650;28;20233;-79
2022/10/28 17:21:33;;;;;;;0.00;0.00;;;;;;;20.13;57.74;98581.09;8286210;28;20233;-79
2022/10/28 17:25:36;;;;;;;0.00;0.00;;;;;;;20.21;56.87;98576.09;8285821;28;20232;-79
2022/10/28 17:29:39;;;;;;;0.00;0.00;;;;;;;20.25;57.02;98588.91;8285850;28;20263;-79
2022/10/28 17:33:43;;;;;;;0.00;0.00;;;;;;;20.18;57.07;98592.09;8285946;28;20237;-79
2022/10/28 17:37:46;;;;;;;0.00;0.00;;;;;;;20.23;57.05;98600.50;8286030;28;20236;-79
2022/10/28 17:41:48;;;;;;;0.00;0.00;;;;;;;19.92;57.05;98602.75;8285344;28;20237;-79
2022/10/28 17:45:53;;;;;;;0.00;0.00;;;;;;;19.95;57.36;98589.38;8285473;28;20295;-79
2022/10/28 17:49:58;;;;;;;0.00;0.00;;;;;;;19.77;57.73;98588.94;8284821;28;20242;-78
2022/10/28 17:54:01;;;;;;;0.00;0.00;;;;;;;19.97;56.86;98586.63;8285369;28;20451;-79
2022/10/28 17:58:04;;;;;;;0.00;0.00;;;;;;;20.05;56.90;98593.00;8285262;28;20244;-79
2022/10/28 18:02:07;;;;;;;0.00;0.00;;;;;;;20.04;56.92;98601.00;8285036;28;20521;-78
2022/10/28 18:06:12;;;;;;;0.00;0.00;;;;;;;20.01;56.90;98611.72;8285223;28;20256;-78
2022/10/28 18:10:15;;;;;;;0.00;0.00;;;;;;;20.03;57.04;98599.31;8284952;28;20494;-77
2022/10/28 18:14:19;;;;;;;0.00;0.00;;;;;;;20.03;56.68;98600.19;8284776;28;20303;-77
2022/10/28 18:18:21;;;;;;;0.00;0.00;;;;;;;20.01;56.56;98594.19;8284604;28;20236;-78
2022/10/28 18:22:26;;;;;;;0.00;0.00;;;;;;;20.02;56.53;98602.91;8284058;28;20229;-75
2022/10/28 18:26:29;;;;;;;0.00;0.00;;;;;;;19.98;56.32;98606.72;8283591;28;20230;-78
2022/10/28 18:30:32;;;;;;;0.00;0.00;;;;;;;19.88;56.99;98604.75;8284069;28;20233;-79
2022/10/28 18:34:35;;;;;;;0.00;0.00;;;;;;;19.91;56.89;98601.91;8284075;28;20241;-79
2022/10/28 18:38:39;;;;;;;0.00;0.00;;;;;;;19.83;57.25;98595.53;8283535;28;20298;-79
2022/10/28 18:42:42;;;;;;;0.00;0.00;;;;;;;19.91;56.59;98601.06;8283876;28;20557;-78
2022/10/28 18:46:45;;;;;;;0.00;0.00;;;;;;;19.90;56.72;98594.13;8283557;28;20256;-78
2022/10/28 18:50:55;;;;;;;0.00;0.00;;;;;;;19.83;56.94;98598.97;8283408;28;20315;-78
2022/10/28 18:54:59;;;;;;;0.00;0.00;;;;;;;19.82;57.02;98610.47;8282715;28;20440;-77
2022/10/28 18:59:04;;;;;;;0.00;0.00;;;;;;;19.48;58.03;98597.06;8283287;28;20240;-78
2022/10/28 19:03:07;;;;;;;0.00;0.00;;;;;;;19.67;59.11;98599.22;8282633;28;20240;-76
2022/10/28 19:07:10;;;;;;;0.00;0.00;;;;;;;19.73;59.51;98601.44;8283022;28;20251;-78
2022/10/28 19:11:14;;;;;;;0.00;0.00;;;;;;;19.69;57.86;98597.31;8282775;28;20312;-90
2022/10/28 19:15:17;;;;;;;0.00;0.00;;;;;;;19.46;58.26;98587.63;8283677;28;20249;-88
2022/10/28 19:19:19;;;;;;;0.00;0.00;;;;;;;19.65;57.79;98597.66;8282976;28;20464;-86
2022/10/28 19:23:22;;;;;;;0.00;0.00;;;;;;;19.39;58.62;98595.09;8283333;28;20263;-86